sensor_id;sensor_type;location;lat;lon;timestamp;P1;durP1;ratioP1;P2;durP2;ratioP2
3733;SDS011;1882;52.256;8.874;2022-11-11T00:00:13;6.00;;;3.00;;
3733;SDS011;1882;52.256;8.874;2022-11-11T00:02:59;10.03;;;3.60;;
3733;SDS011;1882;52.256;8.874;2022-11-11T00:05:44;10.90;;;3.20;;
3733;SDS011;1882;52.256;8.874;2022-11-11T00:08:30;4.80;;;3.07;;
3733;SDS011;1882;52.256;8.874;2022-11-11T00:11:15;4.83;;;3.03;;
3733;SDS011;1882;52.256;8.874;2022-11-11T00:14:01;9.60;;;2.80;;
3733;SDS011;1882;52.256;8.874;2022-11-11T00:16:46;5.60;;;3.13;;
3733;SDS011;1882;52.256;8.874;2022-11-11T00:19:50;7.80;;;3.30;;
3733;SDS011;1882;52.256;8.874;2022-11-11T00:22:54;7.47;;;3.23;;
3733;SDS011;1882;52.256;8.874;2022-11-11T00:25:58;4.97;;;3.13;;
3733;SDS011;1882;52.256;8.874;2022-11-11T00:29:04;4.80;;;2.47;;
3733;SDS011;1882;52.256;8.874;2022-11-11T00:31:49;7.93;;;3.00;;
3733;SDS011;1882;52.256;8.874;2022-11-11T00:34:54;5.97;;;3.50;;
3733;SDS011;1882;52.256;8.874;2022-11-11T00:38:05;5.57;;;3.07;;
3733;SDS011;1882;52.256;8.874;2022-11-11T00:40:52;5.23;;;2.73;;
3733;SDS011;1882;52.256;8.874;2022-11-11T00:43:37;5.90;;;2.80;;
3733;SDS011;1882;52.256;8.874;2022-11-11T00:46:26;12.47;;;3.20;;
3733;SDS011;1882;52.256;8.874;2022-11-11T00:49:30;5.30;;;2.70;;
3733;SDS011;1882;52.256;8.874;2022-11-11T00:52:33;6.53;;;2.80;;
3733;SDS011;1882;52.256;8.874;2022-11-11T00:55:19;5.00;;;2.90;;
3733;SDS011;1882;52.256;8.874;2022-11-11T00:58:04;10.60;;;3.07;;
3733;SDS011;1882;52.256;8.874;2022-11-11T01:00:49;9.00;;;3.13;;
3733;SDS011;1882;52.256;8.874;2022-11-11T01:03:37;12.53;;;3.20;;
3733;SDS011;1882;52.256;8.874;2022-11-11T01:06:23;6.43;;;2.57;;
3733;SDS011;1882;52.256;8.874;2022-11-11T01:09:08;8.03;;;3.13;;
3733;SDS011;1882;52.256;8.874;2022-11-11T01:11:53;8.97;;;3.27;;
3733;SDS011;1882;52.256;8.874;2022-11-11T01:14:39;8.30;;;3.27;;
3733;SDS011;1882;52.256;8.874;2022-11-11T01:17:25;5.90;;;3.00;;
3733;SDS011;1882;52.256;8.874;2022-11-11T01:20:10;6.57;;;3.13;;
3733;SDS011;1882;52.256;8.874;2022-11-11T01:22:55;5.67;;;3.00;;
3733;SDS011;1882;52.256;8.874;2022-11-11T01:25:41;6.80;;;3.40;;
3733;SDS011;1882;52.256;8.874;2022-11-11T01:28:26;4.63;;;3.50;;
3733;SDS011;1882;52.256;8.874;2022-11-11T01:31:13;11.30;;;3.43;;
3733;SDS011;1882;52.256;8.874;2022-11-11T01:33:59;6.67;;;2.90;;
3733;SDS011;1882;52.256;8.874;2022-11-11T01:36:44;7.17;;;3.33;;
3733;SDS011;1882;52.256;8.874;2022-11-11T01:39:30;8.00;;;3.20;;
3733;SDS011;1882;52.256;8.874;2022-11-11T01:42:15;5.40;;;3.30;;
3733;SDS011;1882;52.256;8.874;2022-11-11T01:45:00;5.10;;;3.07;;
3733;SDS011;1882;52.256;8.874;2022-11-11T01:47:46;4.60;;;2.73;;
3733;SDS011;1882;52.256;8.874;2022-11-11T01:51:11;5.13;;;3.07;;
3733;SDS011;1882;52.256;8.874;2022-11-11T01:54:18;5.90;;;3.37;;
3733;SDS011;1882;52.256;8.874;2022-11-11T02:00:08;9.60;;;3.30;;
3733;SDS011;1882;52.256;8.874;2022-11-11T02:02:58;6.47;;;3.30;;
3733;SDS011;1882;52.256;8.874;2022-11-11T02:05:50;11.77;;;3.20;;
3733;SDS011;1882;52.256;8.874;2022-11-11T02:08:39;5.50;;;3.40;;
3733;SDS011;1882;52.256;8.874;2022-11-11T02:11:25;4.63;;;3.13;;
3733;SDS011;1882;52.256;8.874;2022-11-11T02:14:29;8.00;;;3.13;;
3733;SDS011;1882;52.256;8.874;2022-11-11T02:17:22;5.70;;;2.80;;
3733;SDS011;1882;52.256;8.874;2022-11-11T02:20:08;5.63;;;3.33;;
3733;SDS011;1882;52.256;8.874;2022-11-11T02:22:56;7.77;;;3.20;;
3733;SDS011;1882;52.256;8.874;2022-11-11T02:25:45;6.27;;;2.80;;
3733;SDS011;1882;52.256;8.874;2022-11-11T02:28:31;4.63;;;3.00;;
3733;SDS011;1882;52.256;8.874;2022-11-11T02:31:17;5.07;;;3.27;;
3733;SDS011;1882;52.256;8.874;2022-11-11T02:34:02;5.30;;;2.70;;
3733;SDS011;1882;52.256;8.874;2022-11-11T02:36:48;8.60;;;3.17;;
3733;SDS011;1882;52.256;8.874;2022-11-11T02:39:34;8.37;;;3.17;;
3733;SDS011;1882;52.256;8.874;2022-11-11T02:42:43;5.73;;;3.47;;
3733;SDS011;1882;52.256;8.874;2022-11-11T02:45:28;5.27;;;2.87;;
3733;SDS011;1882;52.256;8.874;2022-11-11T02:48:14;7.23;;;2.93;;
3733;SDS011;1882;52.256;8.874;2022-11-11T02:51:00;4.63;;;3.17;;
3733;SDS011;1882;52.256;8.874;2022-11-11T02:53:45;6.03;;;3.63;;
3733;SDS011;1882;52.256;8.874;2022-11-11T02:56:31;12.63;;;3.30;;
3733;SDS011;1882;52.256;8.874;2022-11-11T02:59:36;6.00;;;3.10;;
3733;SDS011;1882;52.256;8.874;2022-11-11T03:02:23;4.57;;;2.90;;
3733;SDS011;1882;52.256;8.874;2022-11-11T03:05:11;6.50;;;3.30;;
3733;SDS011;1882;52.256;8.874;2022-11-11T03:07:56;5.77;;;2.93;;
3733;SDS011;1882;52.256;8.874;2022-11-11T03:10:42;7.40;;;3.10;;
3733;SDS011;1882;52.256;8.874;2022-11-11T03:13:27;4.33;;;2.50;;
3733;SDS011;1882;52.256;8.874;2022-11-11T03:16:13;7.57;;;3.87;;
3733;SDS011;1882;52.256;8.874;2022-11-11T03:19:19;8.17;;;2.80;;
3733;SDS011;1882;52.256;8.874;2022-11-11T03:22:04;5.33;;;2.73;;
3733;SDS011;1882;52.256;8.874;2022-11-11T03:25:09;6.60;;;3.00;;
3733;SDS011;1882;52.256;8.874;2022-11-11T03:28:17;4.87;;;2.80;;
3733;SDS011;1882;52.256;8.874;2022-11-11T03:31:03;8.53;;;3.37;;
3733;SDS011;1882;52.256;8.874;2022-11-11T03:33:48;6.13;;;2.67;;
3733;SDS011;1882;52.256;8.874;2022-11-11T03:36:36;7.73;;;2.80;;
3733;SDS011;1882;52.256;8.874;2022-11-11T03:39:40;5.00;;;3.00;;
3733;SDS011;1882;52.256;8.874;2022-11-11T03:42:25;8.60;;;2.90;;
3733;SDS011;1882;52.256;8.874;2022-11-11T03:45:11;5.43;;;3.00;;
3733;SDS011;1882;52.256;8.874;2022-11-11T03:47:57;6.57;;;2.93;;
3733;SDS011;1882;52.256;8.874;2022-11-11T03:50:42;5.53;;;2.57;;
3733;SDS011;1882;52.256;8.874;2022-11-11T03:53:28;5.53;;;2.93;;
3733;SDS011;1882;52.256;8.874;2022-11-11T03:56:13;9.37;;;2.90;;
3733;SDS011;1882;52.256;8.874;2022-11-11T03:58:58;7.13;;;3.30;;
3733;SDS011;1882;52.256;8.874;2022-11-11T04:01:44;5.53;;;2.70;;
3733;SDS011;1882;52.256;8.874;2022-11-11T04:04:48;18.67;;;3.10;;
3733;SDS011;1882;52.256;8.874;2022-11-11T04:07:52;5.57;;;2.90;;
3733;SDS011;1882;52.256;8.874;2022-11-11T04:10:56;7.40;;;2.83;;
3733;SDS011;1882;52.256;8.874;2022-11-11T04:13:43;6.30;;;3.40;;
3733;SDS011;1882;52.256;8.874;2022-11-11T04:16:48;6.50;;;3.00;;
3733;SDS011;1882;52.256;8.874;2022-11-11T04:19:41;6.37;;;3.13;;
3733;SDS011;1882;52.256;8.874;2022-11-11T04:22:45;4.93;;;2.80;;
3733;SDS011;1882;52.256;8.874;2022-11-11T04:25:30;5.17;;;3.13;;
3733;SDS011;1882;52.256;8.874;2022-11-11T04:28:36;6.40;;;2.83;;
3733;SDS011;1882;52.256;8.874;2022-11-11T04:31:40;3.93;;;2.70;;
3733;SDS011;1882;52.256;8.874;2022-11-11T04:34:46;4.27;;;2.83;;
3733;SDS011;1882;52.256;8.874;2022-11-11T04:37:36;6.30;;;2.70;;
3733;SDS011;1882;52.256;8.874;2022-11-11T04:40:29;8.53;;;2.87;;
3733;SDS011;1882;52.256;8.874;2022-11-11T04:43:47;11.60;;;3.27;;
3733;SDS011;1882;52.256;8.874;2022-11-11T04:46:51;4.83;;;3.20;;
3733;SDS011;1882;52.256;8.874;2022-11-11T04:49:43;5.90;;;3.20;;
3733;SDS011;1882;52.256;8.874;2022-11-11T04:52:28;5.90;;;2.87;;
3733;SDS011;1882;52.256;8.874;2022-11-11T04:55:14;5.47;;;2.90;;
3733;SDS011;1882;52.256;8.874;2022-11-11T04:58:19;6.20;;;3.00;;
3733;SDS011;1882;52.256;8.874;2022-11-11T05:01:05;5.33;;;3.03;;
3733;SDS011;1882;52.256;8.874;2022-11-11T05:03:50;12.33;;;3.10;;
3733;SDS011;1882;52.256;8.874;2022-11-11T05:06:36;5.63;;;3.53;;
3733;SDS011;1882;52.256;8.874;2022-11-11T05:09:43;5.00;;;2.90;;
3733;SDS011;1882;52.256;8.874;2022-11-11T05:12:29;4.43;;;2.93;;
3733;SDS011;1882;52.256;8.874;2022-11-11T05:15:14;11.00;;;3.17;;
3733;SDS011;1882;52.256;8.874;2022-11-11T05:18:18;4.83;;;2.97;;
3733;SDS011;1882;52.256;8.874;2022-11-11T05:21:24;5.67;;;2.70;;
3733;SDS011;1882;52.256;8.874;2022-11-11T05:24:10;6.37;;;3.70;;
3733;SDS011;1882;52.256;8.874;2022-11-11T05:27:14;7.70;;;3.30;;
3733;SDS011;1882;52.256;8.874;2022-11-11T05:30:00;5.07;;;3.00;;
3733;SDS011;1882;52.256;8.874;2022-11-11T05:32:45;7.17;;;2.63;;
3733;SDS011;1882;52.256;8.874;2022-11-11T05:35:31;8.13;;;3.23;;
3733;SDS011;1882;52.256;8.874;2022-11-11T05:38:16;3.37;;;2.60;;
3733;SDS011;1882;52.256;8.874;2022-11-11T05:41:04;7.67;;;3.17;;
3733;SDS011;1882;52.256;8.874;2022-11-11T05:43:50;4.53;;;2.73;;
3733;SDS011;1882;52.256;8.874;2022-11-11T05:46:35;6.10;;;3.17;;
3733;SDS011;1882;52.256;8.874;2022-11-11T05:49:21;7.93;;;3.17;;
3733;SDS011;1882;52.256;8.874;2022-11-11T05:52:07;4.70;;;3.33;;
3733;SDS011;1882;52.256;8.874;2022-11-11T05:54:53;3.53;;;2.50;;
3733;SDS011;1882;52.256;8.874;2022-11-11T05:57:39;6.50;;;2.97;;
3733;SDS011;1882;52.256;8.874;2022-11-11T06:00:24;6.10;;;2.97;;
3733;SDS011;1882;52.256;8.874;2022-11-11T06:03:09;3.77;;;2.70;;
3733;SDS011;1882;52.256;8.874;2022-11-11T06:05:55;4.10;;;2.97;;
3733;SDS011;1882;52.256;8.874;2022-11-11T06:08:40;4.10;;;2.70;;
3733;SDS011;1882;52.256;8.874;2022-11-11T06:11:26;5.20;;;3.00;;
3733;SDS011;1882;52.256;8.874;2022-11-11T06:14:16;8.00;;;2.90;;
3733;SDS011;1882;52.256;8.874;2022-11-11T06:17:02;3.53;;;2.70;;
3733;SDS011;1882;52.256;8.874;2022-11-11T06:19:47;10.80;;;3.87;;
3733;SDS011;1882;52.256;8.874;2022-11-11T06:22:33;5.10;;;3.33;;
3733;SDS011;1882;52.256;8.874;2022-11-11T06:25:37;7.33;;;2.97;;
3733;SDS011;1882;52.256;8.874;2022-11-11T06:28:50;5.70;;;3.10;;
3733;SDS011;1882;52.256;8.874;2022-11-11T06:31:37;11.10;;;3.00;;
3733;SDS011;1882;52.256;8.874;2022-11-11T06:34:22;8.80;;;3.00;;
3733;SDS011;1882;52.256;8.874;2022-11-11T06:37:08;9.20;;;3.17;;
3733;SDS011;1882;52.256;8.874;2022-11-11T06:39:53;5.70;;;2.83;;
3733;SDS011;1882;52.256;8.874;2022-11-11T06:42:39;8.37;;;3.20;;
3733;SDS011;1882;52.256;8.874;2022-11-11T06:45:24;8.10;;;3.17;;
3733;SDS011;1882;52.256;8.874;2022-11-11T06:48:11;5.70;;;3.37;;
3733;SDS011;1882;52.256;8.874;2022-11-11T06:51:03;8.57;;;3.10;;
3733;SDS011;1882;52.256;8.874;2022-11-11T06:53:49;9.17;;;3.43;;
3733;SDS011;1882;52.256;8.874;2022-11-11T06:56:35;5.20;;;3.03;;
3733;SDS011;1882;52.256;8.874;2022-11-11T06:59:20;7.10;;;3.23;;
3733;SDS011;1882;52.256;8.874;2022-11-11T07:02:07;6.70;;;2.80;;
3733;SDS011;1882;52.256;8.874;2022-11-11T07:04:56;6.83;;;3.10;;
3733;SDS011;1882;52.256;8.874;2022-11-11T07:07:44;5.03;;;3.10;;
3733;SDS011;1882;52.256;8.874;2022-11-11T07:10:30;4.13;;;2.50;;
3733;SDS011;1882;52.256;8.874;2022-11-11T07:13:15;5.20;;;2.80;;
3733;SDS011;1882;52.256;8.874;2022-11-11T07:16:01;6.43;;;2.50;;
3733;SDS011;1882;52.256;8.874;2022-11-11T07:18:46;5.87;;;3.07;;
3733;SDS011;1882;52.256;8.874;2022-11-11T07:21:32;6.23;;;2.93;;
3733;SDS011;1882;52.256;8.874;2022-11-11T07:24:17;5.10;;;2.40;;
3733;SDS011;1882;52.256;8.874;2022-11-11T07:27:03;3.30;;;2.90;;
3733;SDS011;1882;52.256;8.874;2022-11-11T07:29:48;5.43;;;2.77;;
3733;SDS011;1882;52.256;8.874;2022-11-11T07:32:34;4.43;;;2.30;;
3733;SDS011;1882;52.256;8.874;2022-11-11T07:35:19;4.67;;;2.83;;
3733;SDS011;1882;52.256;8.874;2022-11-11T07:38:05;6.30;;;2.97;;
3733;SDS011;1882;52.256;8.874;2022-11-11T07:40:51;9.63;;;2.80;;
3733;SDS011;1882;52.256;8.874;2022-11-11T07:43:36;5.40;;;2.53;;
3733;SDS011;1882;52.256;8.874;2022-11-11T07:46:21;5.67;;;2.60;;
3733;SDS011;1882;52.256;8.874;2022-11-11T07:49:06;3.00;;;2.57;;
3733;SDS011;1882;52.256;8.874;2022-11-11T07:51:52;5.07;;;2.60;;
3733;SDS011;1882;52.256;8.874;2022-11-11T07:54:40;6.70;;;2.90;;
3733;SDS011;1882;52.256;8.874;2022-11-11T07:57:25;5.90;;;2.57;;
3733;SDS011;1882;52.256;8.874;2022-11-11T08:00:11;4.30;;;2.60;;
3733;SDS011;1882;52.256;8.874;2022-11-11T08:02:57;5.63;;;2.70;;
3733;SDS011;1882;52.256;8.874;2022-11-11T08:05:45;4.90;;;2.60;;
3733;SDS011;1882;52.256;8.874;2022-11-11T08:08:33;5.73;;;2.50;;
3733;SDS011;1882;52.256;8.874;2022-11-11T08:11:18;4.70;;;2.60;;
3733;SDS011;1882;52.256;8.874;2022-11-11T08:14:23;5.47;;;2.67;;
3733;SDS011;1882;52.256;8.874;2022-11-11T08:17:10;5.40;;;2.50;;
3733;SDS011;1882;52.256;8.874;2022-11-11T08:19:55;8.57;;;2.73;;
3733;SDS011;1882;52.256;8.874;2022-11-11T08:22:41;5.90;;;2.57;;
3733;SDS011;1882;52.256;8.874;2022-11-11T08:25:46;8.47;;;2.70;;
3733;SDS011;1882;52.256;8.874;2022-11-11T08:28:32;4.43;;;2.43;;
3733;SDS011;1882;52.256;8.874;2022-11-11T08:31:19;6.30;;;2.60;;
3733;SDS011;1882;52.256;8.874;2022-11-11T08:34:05;4.77;;;2.87;;
3733;SDS011;1882;52.256;8.874;2022-11-11T08:36:50;3.73;;;2.67;;
3733;SDS011;1882;52.256;8.874;2022-11-11T08:39:36;3.97;;;2.30;;
3733;SDS011;1882;52.256;8.874;2022-11-11T08:42:21;2.97;;;2.30;;
3733;SDS011;1882;52.256;8.874;2022-11-11T08:45:07;3.97;;;2.53;;
3733;SDS011;1882;52.256;8.874;2022-11-11T08:47:53;3.40;;;2.40;;
3733;SDS011;1882;52.256;8.874;2022-11-11T08:50:39;6.83;;;2.40;;
3733;SDS011;1882;52.256;8.874;2022-11-11T08:53:25;6.80;;;2.20;;
3733;SDS011;1882;52.256;8.874;2022-11-11T08:56:11;5.73;;;2.27;;
3733;SDS011;1882;52.256;8.874;2022-11-11T08:58:57;6.47;;;2.20;;
3733;SDS011;1882;52.256;8.874;2022-11-11T09:01:42;4.00;;;2.40;;
3733;SDS011;1882;52.256;8.874;2022-11-11T09:04:27;5.53;;;2.33;;
3733;SDS011;1882;52.256;8.874;2022-11-11T09:07:28;5.07;;;2.80;;
3733;SDS011;1882;52.256;8.874;2022-11-11T09:10:13;5.40;;;2.63;;
3733;SDS011;1882;52.256;8.874;2022-11-11T09:12:59;5.30;;;2.30;;
3733;SDS011;1882;52.256;8.874;2022-11-11T09:15:44;6.70;;;2.13;;
3733;SDS011;1882;52.256;8.874;2022-11-11T09:18:30;3.50;;;2.20;;
3733;SDS011;1882;52.256;8.874;2022-11-11T09:21:15;4.33;;;2.20;;
3733;SDS011;1882;52.256;8.874;2022-11-11T09:24:01;4.80;;;2.00;;
3733;SDS011;1882;52.256;8.874;2022-11-11T09:26:47;5.10;;;2.50;;
3733;SDS011;1882;52.256;8.874;2022-11-11T09:29:33;3.23;;;2.07;;
3733;SDS011;1882;52.256;8.874;2022-11-11T09:32:18;2.00;;;1.90;;
3733;SDS011;1882;52.256;8.874;2022-11-11T09:35:04;4.43;;;2.27;;
3733;SDS011;1882;52.256;8.874;2022-11-11T09:37:56;5.20;;;2.33;;
3733;SDS011;1882;52.256;8.874;2022-11-11T09:46:51;6.07;;;2.30;;
3733;SDS011;1882;52.256;8.874;2022-11-11T09:58:16;3.77;;;1.90;;
3733;SDS011;1882;52.256;8.874;2022-11-11T10:07:12;5.53;;;2.10;;
3733;SDS011;1882;52.256;8.874;2022-11-11T10:10:05;3.90;;;1.83;;
3733;SDS011;1882;52.256;8.874;2022-11-11T10:12:56;4.50;;;2.00;;
3733;SDS011;1882;52.256;8.874;2022-11-11T10:15:46;4.37;;;2.53;;
3733;SDS011;1882;52.256;8.874;2022-11-11T10:21:47;3.63;;;1.80;;
3733;SDS011;1882;52.256;8.874;2022-11-11T10:28:16;2.30;;;1.90;;
3733;SDS011;1882;52.256;8.874;2022-11-11T10:31:05;3.73;;;1.80;;
3733;SDS011;1882;52.256;8.874;2022-11-11T10:34:00;4.20;;;1.90;;
3733;SDS011;1882;52.256;8.874;2022-11-11T10:36:52;2.90;;;1.70;;
3733;SDS011;1882;52.256;8.874;2022-11-11T10:42:54;8.00;;;2.13;;
3733;SDS011;1882;52.256;8.874;2022-11-11T10:45:48;3.70;;;2.10;;
3733;SDS011;1882;52.256;8.874;2022-11-11T10:48:40;3.00;;;1.73;;
3733;SDS011;1882;52.256;8.874;2022-11-11T10:51:48;2.10;;;1.80;;
3733;SDS011;1882;52.256;8.874;2022-11-11T10:57:38;4.20;;;1.93;;
3733;SDS011;1882;52.256;8.874;2022-11-11T11:00:26;3.87;;;1.80;;
3733;SDS011;1882;52.256;8.874;2022-11-11T11:06:19;2.63;;;1.90;;
3733;SDS011;1882;52.256;8.874;2022-11-11T11:09:29;5.30;;;2.00;;
3733;SDS011;1882;52.256;8.874;2022-11-11T11:12:20;3.73;;;1.80;;
3733;SDS011;1882;52.256;8.874;2022-11-11T11:15:19;7.83;;;2.30;;
3733;SDS011;1882;52.256;8.874;2022-11-11T11:18:08;4.07;;;1.70;;
3733;SDS011;1882;52.256;8.874;2022-11-11T11:23:45;5.70;;;2.03;;
3733;SDS011;1882;52.256;8.874;2022-11-11T11:26:44;2.80;;;2.10;;
3733;SDS011;1882;52.256;8.874;2022-11-11T11:32:17;3.37;;;1.97;;
3733;SDS011;1882;52.256;8.874;2022-11-11T11:35:13;6.10;;;2.20;;
3733;SDS011;1882;52.256;8.874;2022-11-11T11:38:25;4.73;;;2.10;;
3733;SDS011;1882;52.256;8.874;2022-11-11T11:47:23;10.40;;;2.03;;
3733;SDS011;1882;52.256;8.874;2022-11-11T11:50:48;6.90;;;1.80;;
3733;SDS011;1882;52.256;8.874;2022-11-11T11:56:37;3.37;;;1.90;;
3733;SDS011;1882;52.256;8.874;2022-11-11T12:06:30;2.50;;;1.73;;
3733;SDS011;1882;52.256;8.874;2022-11-11T12:09:00;4.43;;;1.93;;
3733;SDS011;1882;52.256;8.874;2022-11-11T12:15:30;2.57;;;1.67;;
3733;SDS011;1882;52.256;8.874;2022-11-11T12:31:24;5.00;;;2.10;;
3733;SDS011;1882;52.256;8.874;2022-11-11T12:49:48;5.00;;;1.90;;
3733;SDS011;1882;52.256;8.874;2022-11-11T13:05:25;8.50;;;3.73;;
3733;SDS011;1882;52.256;8.874;2022-11-11T13:17:12;8.33;;;2.53;;
3733;SDS011;1882;52.256;8.874;2022-11-11T13:19:59;5.60;;;2.60;;
3733;SDS011;1882;52.256;8.874;2022-11-11T13:22:49;7.53;;;2.17;;
3733;SDS011;1882;52.256;8.874;2022-11-11T13:25:43;3.50;;;2.37;;
3733;SDS011;1882;52.256;8.874;2022-11-11T13:28:38;4.87;;;2.10;;
3733;SDS011;1882;52.256;8.874;2022-11-11T13:31:30;3.70;;;2.13;;
3733;SDS011;1882;52.256;8.874;2022-11-11T13:34:21;2.70;;;1.60;;
3733;SDS011;1882;52.256;8.874;2022-11-11T13:37:07;2.70;;;1.80;;
3733;SDS011;1882;52.256;8.874;2022-11-11T13:40:04;3.27;;;1.97;;
3733;SDS011;1882;52.256;8.874;2022-11-11T13:42:51;2.27;;;1.70;;
3733;SDS011;1882;52.256;8.874;2022-11-11T13:45:38;2.80;;;1.60;;
3733;SDS011;1882;52.256;8.874;2022-11-11T13:48:27;4.00;;;1.70;;
3733;SDS011;1882;52.256;8.874;2022-11-11T13:57:05;2.70;;;1.57;;
3733;SDS011;1882;52.256;8.874;2022-11-11T14:02:45;3.80;;;1.40;;
3733;SDS011;1882;52.256;8.874;2022-11-11T14:05:31;4.13;;;1.40;;
3733;SDS011;1882;52.256;8.874;2022-11-11T14:17:18;3.70;;;1.77;;
3733;SDS011;1882;52.256;8.874;2022-11-11T14:23:15;1.73;;;1.30;;
3733;SDS011;1882;52.256;8.874;2022-11-11T14:31:50;5.20;;;1.80;;
3733;SDS011;1882;52.256;8.874;2022-11-11T14:50:01;6.33;;;1.83;;
3733;SDS011;1882;52.256;8.874;2022-11-11T14:52:47;3.90;;;1.63;;
3733;SDS011;1882;52.256;8.874;2022-11-11T14:55:35;3.97;;;1.40;;
3733;SDS011;1882;52.256;8.874;2022-11-11T14:58:25;2.70;;;1.30;;
3733;SDS011;1882;52.256;8.874;2022-11-11T15:01:19;3.67;;;1.47;;
3733;SDS011;1882;52.256;8.874;2022-11-11T15:04:05;3.60;;;1.70;;
3733;SDS011;1882;52.256;8.874;2022-11-11T15:06:58;3.33;;;1.60;;
3733;SDS011;1882;52.256;8.874;2022-11-11T15:13:24;2.10;;;1.63;;
3733;SDS011;1882;52.256;8.874;2022-11-11T15:23:04;3.90;;;1.80;;
3733;SDS011;1882;52.256;8.874;2022-11-11T15:26:04;5.10;;;2.40;;
3733;SDS011;1882;52.256;8.874;2022-11-11T15:28:58;5.93;;;1.80;;
3733;SDS011;1882;52.256;8.874;2022-11-11T15:38:14;4.70;;;1.57;;
3733;SDS011;1882;52.256;8.874;2022-11-11T15:41:01;3.57;;;1.70;;
3733;SDS011;1882;52.256;8.874;2022-11-11T15:43:46;4.67;;;2.00;;
3733;SDS011;1882;52.256;8.874;2022-11-11T15:46:31;4.60;;;2.10;;
3733;SDS011;1882;52.256;8.874;2022-11-11T15:49:36;3.13;;;1.90;;
3733;SDS011;1882;52.256;8.874;2022-11-11T15:58:15;1.80;;;1.53;;
3733;SDS011;1882;52.256;8.874;2022-11-11T16:01:03;5.23;;;1.90;;
3733;SDS011;1882;52.256;8.874;2022-11-11T16:03:54;2.30;;;1.63;;
3733;SDS011;1882;52.256;8.874;2022-11-11T16:06:40;2.90;;;1.60;;
3733;SDS011;1882;52.256;8.874;2022-11-11T16:09:26;3.37;;;1.70;;
3733;SDS011;1882;52.256;8.874;2022-11-11T16:12:16;2.43;;;1.77;;
3733;SDS011;1882;52.256;8.874;2022-11-11T16:15:15;3.87;;;1.63;;
3733;SDS011;1882;52.256;8.874;2022-11-11T16:18:09;3.00;;;1.60;;
3733;SDS011;1882;52.256;8.874;2022-11-11T16:21:15;3.43;;;1.73;;
3733;SDS011;1882;52.256;8.874;2022-11-11T16:24:06;2.93;;;1.90;;
3733;SDS011;1882;52.256;8.874;2022-11-11T16:27:06;4.57;;;2.30;;
3733;SDS011;1882;52.256;8.874;2022-11-11T16:29:52;5.70;;;2.60;;
3733;SDS011;1882;52.256;8.874;2022-11-11T16:32:37;4.17;;;2.60;;
3733;SDS011;1882;52.256;8.874;2022-11-11T16:35:24;3.37;;;2.20;;
3733;SDS011;1882;52.256;8.874;2022-11-11T16:38:11;4.70;;;2.20;;
3733;SDS011;1882;52.256;8.874;2022-11-11T16:50:22;3.10;;;2.30;;
3733;SDS011;1882;52.256;8.874;2022-11-11T16:53:09;2.60;;;2.27;;
3733;SDS011;1882;52.256;8.874;2022-11-11T16:56:17;8.00;;;2.83;;
3733;SDS011;1882;52.256;8.874;2022-11-11T16:59:07;6.00;;;2.40;;
3733;SDS011;1882;52.256;8.874;2022-11-11T17:01:55;6.70;;;2.83;;
3733;SDS011;1882;52.256;8.874;2022-11-11T17:07:33;4.43;;;2.10;;
3733;SDS011;1882;52.256;8.874;2022-11-11T17:10:25;4.20;;;2.57;;
3733;SDS011;1882;52.256;8.874;2022-11-11T17:13:12;3.63;;;2.40;;
3733;SDS011;1882;52.256;8.874;2022-11-11T17:15:58;2.20;;;2.00;;
3733;SDS011;1882;52.256;8.874;2022-11-11T17:18:51;3.80;;;2.30;;
3733;SDS011;1882;52.256;8.874;2022-11-11T17:21:37;3.20;;;2.40;;
3733;SDS011;1882;52.256;8.874;2022-11-11T17:24:22;2.97;;;2.30;;
3733;SDS011;1882;52.256;8.874;2022-11-11T17:27:07;4.87;;;2.40;;
3733;SDS011;1882;52.256;8.874;2022-11-11T17:29:53;2.40;;;2.20;;
3733;SDS011;1882;52.256;8.874;2022-11-11T17:32:38;5.53;;;2.27;;
3733;SDS011;1882;52.256;8.874;2022-11-11T17:35:23;4.37;;;2.37;;
3733;SDS011;1882;52.256;8.874;2022-11-11T17:38:09;4.40;;;2.30;;
3733;SDS011;1882;52.256;8.874;2022-11-11T17:40:54;3.03;;;2.00;;
3733;SDS011;1882;52.256;8.874;2022-11-11T17:43:40;5.90;;;3.70;;
3733;SDS011;1882;52.256;8.874;2022-11-11T17:46:25;3.60;;;2.17;;
3733;SDS011;1882;52.256;8.874;2022-11-11T17:49:10;3.83;;;2.10;;
3733;SDS011;1882;52.256;8.874;2022-11-11T17:52:00;3.93;;;2.43;;
3733;SDS011;1882;52.256;8.874;2022-11-11T17:54:46;3.07;;;2.50;;
3733;SDS011;1882;52.256;8.874;2022-11-11T17:57:31;2.20;;;2.00;;
3733;SDS011;1882;52.256;8.874;2022-11-11T18:00:16;4.13;;;2.17;;
3733;SDS011;1882;52.256;8.874;2022-11-11T18:03:04;3.10;;;1.97;;
3733;SDS011;1882;52.256;8.874;2022-11-11T18:05:52;3.73;;;2.00;;
3733;SDS011;1882;52.256;8.874;2022-11-11T18:08:38;3.80;;;2.20;;
3733;SDS011;1882;52.256;8.874;2022-11-11T18:11:24;2.33;;;1.90;;
3733;SDS011;1882;52.256;8.874;2022-11-11T18:14:09;4.20;;;2.20;;
3733;SDS011;1882;52.256;8.874;2022-11-11T18:16:55;5.10;;;2.17;;
3733;SDS011;1882;52.256;8.874;2022-11-11T18:19:41;4.30;;;2.10;;
3733;SDS011;1882;52.256;8.874;2022-11-11T18:22:26;4.70;;;2.10;;
3733;SDS011;1882;52.256;8.874;2022-11-11T18:25:12;2.80;;;2.30;;
3733;SDS011;1882;52.256;8.874;2022-11-11T18:27:58;2.57;;;1.87;;
3733;SDS011;1882;52.256;8.874;2022-11-11T18:30:43;4.43;;;2.10;;
3733;SDS011;1882;52.256;8.874;2022-11-11T18:33:29;5.40;;;2.07;;
3733;SDS011;1882;52.256;8.874;2022-11-11T18:36:16;3.83;;;2.27;;
3733;SDS011;1882;52.256;8.874;2022-11-11T18:39:02;4.77;;;2.10;;
3733;SDS011;1882;52.256;8.874;2022-11-11T18:41:48;3.20;;;2.73;;
3733;SDS011;1882;52.256;8.874;2022-11-11T18:44:33;2.83;;;2.00;;
3733;SDS011;1882;52.256;8.874;2022-11-11T18:47:18;3.93;;;2.10;;
3733;SDS011;1882;52.256;8.874;2022-11-11T18:50:04;3.83;;;2.30;;
3733;SDS011;1882;52.256;8.874;2022-11-11T18:52:49;4.17;;;2.20;;
3733;SDS011;1882;52.256;8.874;2022-11-11T18:55:34;3.57;;;2.10;;
3733;SDS011;1882;52.256;8.874;2022-11-11T18:58:20;4.23;;;2.00;;
3733;SDS011;1882;52.256;8.874;2022-11-11T19:01:11;2.30;;;2.10;;
3733;SDS011;1882;52.256;8.874;2022-11-11T19:04:02;4.50;;;2.50;;
3733;SDS011;1882;52.256;8.874;2022-11-11T19:06:49;2.30;;;2.10;;
3733;SDS011;1882;52.256;8.874;2022-11-11T19:09:35;4.63;;;2.30;;
3733;SDS011;1882;52.256;8.874;2022-11-11T19:12:20;1.83;;;1.73;;
3733;SDS011;1882;52.256;8.874;2022-11-11T19:15:05;2.33;;;2.13;;
3733;SDS011;1882;52.256;8.874;2022-11-11T19:17:51;2.87;;;1.90;;
3733;SDS011;1882;52.256;8.874;2022-11-11T19:20:36;2.97;;;2.20;;
3733;SDS011;1882;52.256;8.874;2022-11-11T19:23:21;3.23;;;2.20;;
3733;SDS011;1882;52.256;8.874;2022-11-11T19:26:07;5.07;;;2.13;;
3733;SDS011;1882;52.256;8.874;2022-11-11T19:28:54;3.03;;;2.27;;
3733;SDS011;1882;52.256;8.874;2022-11-11T19:31:39;4.97;;;2.40;;
3733;SDS011;1882;52.256;8.874;2022-11-11T19:34:25;2.87;;;2.10;;
3733;SDS011;1882;52.256;8.874;2022-11-11T19:37:13;6.97;;;1.83;;
3733;SDS011;1882;52.256;8.874;2022-11-11T19:39:58;6.10;;;1.80;;
3733;SDS011;1882;52.256;8.874;2022-11-11T19:42:49;4.03;;;2.10;;
3733;SDS011;1882;52.256;8.874;2022-11-11T19:45:36;2.30;;;1.90;;
3733;SDS011;1882;52.256;8.874;2022-11-11T19:48:22;10.50;;;2.07;;
3733;SDS011;1882;52.256;8.874;2022-11-11T19:51:11;5.00;;;2.13;;
3733;SDS011;1882;52.256;8.874;2022-11-11T19:53:58;2.70;;;1.90;;
3733;SDS011;1882;52.256;8.874;2022-11-11T19:56:44;4.23;;;2.13;;
3733;SDS011;1882;52.256;8.874;2022-11-11T19:59:29;5.93;;;2.30;;
3733;SDS011;1882;52.256;8.874;2022-11-11T20:02:15;5.80;;;2.20;;
3733;SDS011;1882;52.256;8.874;2022-11-11T20:05:00;2.33;;;2.13;;
3733;SDS011;1882;52.256;8.874;2022-11-11T20:07:45;2.90;;;2.20;;
3733;SDS011;1882;52.256;8.874;2022-11-11T20:10:35;3.33;;;2.57;;
3733;SDS011;1882;52.256;8.874;2022-11-11T20:13:25;4.30;;;2.30;;
3733;SDS011;1882;52.256;8.874;2022-11-11T20:16:10;2.67;;;2.20;;
3733;SDS011;1882;52.256;8.874;2022-11-11T20:18:56;3.93;;;2.30;;
3733;SDS011;1882;52.256;8.874;2022-11-11T20:21:43;5.60;;;2.40;;
3733;SDS011;1882;52.256;8.874;2022-11-11T20:24:33;3.27;;;2.50;;
3733;SDS011;1882;52.256;8.874;2022-11-11T20:27:21;4.13;;;2.47;;
3733;SDS011;1882;52.256;8.874;2022-11-11T20:30:07;4.93;;;2.50;;
3733;SDS011;1882;52.256;8.874;2022-11-11T20:32:53;3.17;;;2.50;;
3733;SDS011;1882;52.256;8.874;2022-11-11T20:35:38;3.87;;;2.70;;
3733;SDS011;1882;52.256;8.874;2022-11-11T20:38:23;6.73;;;2.60;;
3733;SDS011;1882;52.256;8.874;2022-11-11T20:41:10;5.60;;;2.70;;
3733;SDS011;1882;52.256;8.874;2022-11-11T20:43:57;4.00;;;2.40;;